createdAt,value
2018-06-15T00:02:12.944Z,3.63
2018-06-15T00:04:41.047Z,3.60
2018-06-15T00:07:08.697Z,4.43
2018-06-15T00:09:36.826Z,4.10
2018-06-15T00:12:04.515Z,3.80
2018-06-15T00:14:32.149Z,4.13
2018-06-15T00:17:00.620Z,3.80
2018-06-15T00:19:28.373Z,3.47
2018-06-15T00:21:56.005Z,3.80
2018-06-15T00:24:23.655Z,3.83
2018-06-15T00:26:51.306Z,3.53
2018-06-15T00:29:19.207Z,3.80
2018-06-15T00:31:47.556Z,3.83
2018-06-15T00:34:15.400Z,3.80
2018-06-15T00:36:43.038Z,3.83
2018-06-15T00:39:12.165Z,3.87
2018-06-15T00:41:40.848Z,3.40
2018-06-15T00:44:08.663Z,4.37
2018-06-15T00:46:36.636Z,4.23
2018-06-15T00:49:04.413Z,4.10
2018-06-15T00:51:32.052Z,3.20
2018-06-15T00:53:59.663Z,4.00
2018-06-15T00:56:28.230Z,4.53
2018-06-15T00:58:56.541Z,3.90
2018-06-15T01:01:24.405Z,3.90
2018-06-15T01:03:53.341Z,4.63
2018-06-15T01:06:21.424Z,3.67
2018-06-15T01:08:49.058Z,5.03
2018-06-15T01:11:16.909Z,3.30
2018-06-15T01:13:44.572Z,3.97
2018-06-15T01:16:12.646Z,4.00
2018-06-15T01:18:40.492Z,4.30
2018-06-15T01:21:08.252Z,4.20
2018-06-15T01:23:36.125Z,3.70
2018-06-15T01:26:03.772Z,3.50
2018-06-15T01:28:31.750Z,4.10
2018-06-15T01:30:59.352Z,4.60
2018-06-15T01:33:27.433Z,3.87
2018-06-15T01:35:55.696Z,3.30
2018-06-15T01:38:23.301Z,4.30
2018-06-15T01:40:51.102Z,4.00
2018-06-15T01:43:18.720Z,4.60
2018-06-15T01:45:46.637Z,4.30
2018-06-15T01:48:14.749Z,3.87
2018-06-15T01:50:42.376Z,3.70
2018-06-15T01:53:10.553Z,3.83
2018-06-15T01:55:38.804Z,4.17
2018-06-15T01:58:06.490Z,3.63
2018-06-15T02:00:34.117Z,4.67
2018-06-15T02:03:02.398Z,4.07
2018-06-15T02:05:30.332Z,4.23
2018-06-15T02:07:57.950Z,5.00
2018-06-15T02:10:26.169Z,4.50
2018-06-15T02:12:54.050Z,4.27
2018-06-15T02:15:21.723Z,3.67
2018-06-15T02:17:49.879Z,5.03
2018-06-15T02:20:17.514Z,4.10
2018-06-15T02:22:45.114Z,4.53
2018-06-15T02:25:12.785Z,4.20
2018-06-15T02:27:40.884Z,5.83
2018-06-15T02:30:08.860Z,4.73
2018-06-15T02:32:37.033Z,4.13
2018-06-15T02:35:05.421Z,4.40
2018-06-15T02:37:33.073Z,4.10
2018-06-15T02:40:00.737Z,4.47
2018-06-15T02:42:28.670Z,5.43
2018-06-15T02:44:56.273Z,4.63
2018-06-15T02:47:24.576Z,5.10
2018-06-15T02:49:52.494Z,5.83
2018-06-15T02:52:20.366Z,5.90
2018-06-15T02:54:48.749Z,5.70
2018-06-15T02:57:16.415Z,5.80
2018-06-15T02:59:44.036Z,6.10
2018-06-15T03:02:12.008Z,4.77
2018-06-15T03:04:39.660Z,6.60
2018-06-15T03:07:07.454Z,5.43
2018-06-15T03:09:35.359Z,6.97
2018-06-15T03:12:03.049Z,5.53
2018-06-15T03:14:31.074Z,6.33
2018-06-15T03:16:58.700Z,7.20
2018-06-15T03:19:26.723Z,5.03
2018-06-15T03:21:54.900Z,5.70
2018-06-15T03:24:22.588Z,5.83
2018-06-15T03:26:50.913Z,7.63
2018-06-15T03:29:18.602Z,6.97
2018-06-15T03:31:46.476Z,6.07
2018-06-15T03:34:14.367Z,4.70
2018-06-15T03:36:42.050Z,5.73
2018-06-15T03:39:11.551Z,6.40
2018-06-15T03:41:39.341Z,5.57
2018-06-15T03:44:07.714Z,5.63
2018-06-15T03:46:36.933Z,4.50
2018-06-15T03:49:04.867Z,5.20
2018-06-15T03:51:33.208Z,5.30
2018-06-15T03:54:01.190Z,6.63
2018-06-15T03:56:28.820Z,5.03
2018-06-15T03:58:56.497Z,5.90
2018-06-15T04:01:24.356Z,6.17
2018-06-15T04:03:52.277Z,4.40
2018-06-15T04:06:20.134Z,5.20
2018-06-15T04:08:49.211Z,5.50
2018-06-15T04:11:16.880Z,6.13
2018-06-15T04:13:44.646Z,5.30
2018-06-15T04:16:12.338Z,6.60
2018-06-15T04:18:40.013Z,5.73
2018-06-15T04:21:07.827Z,6.80
2018-06-15T04:23:35.551Z,7.87
2018-06-15T04:26:03.485Z,6.37
2018-06-15T04:28:31.546Z,6.63
2018-06-15T04:30:59.433Z,5.70
2018-06-15T04:33:27.447Z,6.80
2018-06-15T04:35:55.610Z,5.27
2018-06-15T04:38:23.777Z,6.40
2018-06-15T04:40:51.582Z,6.70
2018-06-15T04:43:19.525Z,6.40
2018-06-15T04:45:47.117Z,4.70
2018-06-15T04:48:15.562Z,5.70
2018-06-15T04:50:43.476Z,6.60
2018-06-15T04:53:11.317Z,6.50
2018-06-15T04:55:38.974Z,5.70
2018-06-15T04:58:06.998Z,6.63
2018-06-15T05:00:34.641Z,5.73
2018-06-15T05:03:02.265Z,6.60
2018-06-15T05:05:31.245Z,5.70
2018-06-15T05:07:59.204Z,5.90
2018-06-15T05:10:27.303Z,6.20
2018-06-15T05:12:55.049Z,6.63
2018-06-15T05:15:22.686Z,5.87
2018-06-15T05:17:50.289Z,6.50
2018-06-15T05:20:17.915Z,6.17
2018-06-15T05:22:45.785Z,6.50
2018-06-15T05:25:13.409Z,6.53
2018-06-15T05:27:41.393Z,5.13
2018-06-15T05:30:09.416Z,7.47
2018-06-15T05:32:37.179Z,6.80
2018-06-15T05:35:04.810Z,4.97
2018-06-15T05:37:32.575Z,5.90
2018-06-15T05:40:00.189Z,4.93
2018-06-15T05:42:28.057Z,7.07
2018-06-15T05:44:55.805Z,5.63
2018-06-15T05:47:23.923Z,5.33
2018-06-15T05:49:51.569Z,5.83
2018-06-15T05:52:19.437Z,5.50
2018-06-15T05:54:47.653Z,4.37
2018-06-15T05:57:15.286Z,5.50
2018-06-15T05:59:43.092Z,5.73
2018-06-15T06:02:10.985Z,5.80
2018-06-15T06:04:38.664Z,5.50
2018-06-15T06:07:06.578Z,5.70
2018-06-15T06:09:34.230Z,5.27
2018-06-15T06:12:02.323Z,5.30
2018-06-15T06:14:30.015Z,6.43
2018-06-15T06:16:58.467Z,4.87
2018-06-15T06:19:26.654Z,5.60
2018-06-15T06:21:54.316Z,6.00
2018-06-15T06:24:22.323Z,4.43
2018-06-15T06:26:50.066Z,4.37
2018-06-15T06:29:17.687Z,6.17
2018-06-15T06:31:45.442Z,4.63
2018-06-15T06:34:13.054Z,4.80
2018-06-15T06:36:41.010Z,5.23
2018-06-15T06:39:10.926Z,4.00
2018-06-15T06:41:39.377Z,4.87
2018-06-15T06:44:07.087Z,5.03
2018-06-15T06:46:34.692Z,4.33
2018-06-15T06:49:02.922Z,5.27
2018-06-15T06:51:30.533Z,4.87
2018-06-15T06:53:58.398Z,4.97
2018-06-15T06:56:26.658Z,4.30
2018-06-15T06:58:54.574Z,4.77
2018-06-15T07:01:22.617Z,3.90
2018-06-15T07:03:50.352Z,3.67
2018-06-15T07:06:18.257Z,4.30
2018-06-15T07:08:45.990Z,4.50
2018-06-15T07:11:13.955Z,3.60
2018-06-15T07:13:41.669Z,4.30
2018-06-15T07:16:09.381Z,3.17
2018-06-15T07:18:37.549Z,4.70
2018-06-15T07:21:05.202Z,3.20
2018-06-15T07:23:33.562Z,3.20
2018-06-15T07:26:02.133Z,3.60
2018-06-15T07:28:29.840Z,3.57
2018-06-15T07:30:57.687Z,3.40
2018-06-15T07:33:25.674Z,3.90
2018-06-15T07:35:53.649Z,4.20
2018-06-15T07:38:21.323Z,3.40
2018-06-15T07:40:49.391Z,4.00
2018-06-15T07:43:17.074Z,3.20
2018-06-15T07:45:45.506Z,3.50
2018-06-15T07:48:13.204Z,3.80
2018-06-15T07:50:41.238Z,2.60
2018-06-15T07:53:09.254Z,3.60
2018-06-15T07:55:37.180Z,3.97
2018-06-15T07:58:05.533Z,2.73
2018-06-15T08:00:33.562Z,2.97
2018-06-15T08:03:01.534Z,3.03
2018-06-15T08:05:29.572Z,3.13
2018-06-15T08:07:57.449Z,3.63
2018-06-15T08:10:25.113Z,2.70
2018-06-15T08:12:52.709Z,3.17
2018-06-15T08:15:20.350Z,3.20
2018-06-15T08:17:47.995Z,2.33
2018-06-15T08:20:15.686Z,4.00
2018-06-15T08:22:43.572Z,2.73
2018-06-15T08:25:11.197Z,3.17
2018-06-15T08:27:38.970Z,2.77
2018-06-15T08:30:06.623Z,2.70
2018-06-15T08:32:34.363Z,3.00
2018-06-15T08:35:02.944Z,3.10
2018-06-15T08:37:30.905Z,3.70
2018-06-15T08:39:58.618Z,2.83
2018-06-15T08:42:26.512Z,2.40
2018-06-15T08:44:54.157Z,2.73
2018-06-15T08:47:22.539Z,2.90
2018-06-15T08:49:50.877Z,3.03
2018-06-15T08:52:18.527Z,3.20
2018-06-15T08:54:46.209Z,2.77
2018-06-15T08:57:13.894Z,2.50
2018-06-15T08:59:41.536Z,2.33
2018-06-15T09:02:09.309Z,2.90
2018-06-15T09:04:37.570Z,3.30
2018-06-15T09:07:05.673Z,2.70
2018-06-15T09:09:33.818Z,3.30
2018-06-15T09:12:01.718Z,2.63
2018-06-15T09:14:29.355Z,2.40
2018-06-15T09:16:57.301Z,2.70
2018-06-15T09:19:25.691Z,2.63
2018-06-15T09:21:53.561Z,2.50
2018-06-15T09:24:21.253Z,2.60
2018-06-15T09:26:49.157Z,2.77
2018-06-15T09:29:16.784Z,3.13
2018-06-15T09:31:44.447Z,3.10
2018-06-15T09:34:12.367Z,3.10
2018-06-15T09:36:40.019Z,3.30
2018-06-15T09:39:09.308Z,2.97
2018-06-15T09:41:37.413Z,2.83
2018-06-15T09:44:05.046Z,2.77
2018-06-15T09:46:33.237Z,2.63
2018-06-15T09:49:01.329Z,2.60
2018-06-15T09:51:28.998Z,3.37
2018-06-15T09:53:56.900Z,3.00
2018-06-15T09:56:24.879Z,3.00
2018-06-15T09:58:53.970Z,3.50
2018-06-15T10:01:22.405Z,3.60
2018-06-15T10:03:50.124Z,2.10
2018-06-15T10:06:17.932Z,2.70
2018-06-15T10:08:45.587Z,3.10
2018-06-15T10:11:13.517Z,2.83
2018-06-15T10:13:41.531Z,3.00
2018-06-15T10:16:09.551Z,3.10
2018-06-15T10:18:37.410Z,2.87
2018-06-15T10:21:05.335Z,2.93
2018-06-15T10:23:32.994Z,3.20
2018-06-15T10:26:00.910Z,2.27
2018-06-15T10:28:28.614Z,2.93
2018-06-15T10:30:56.555Z,2.30
2018-06-15T10:33:24.240Z,2.53
2018-06-15T10:35:52.492Z,3.67
2018-06-15T10:38:20.705Z,3.50
2018-06-15T10:40:48.628Z,3.27
2018-06-15T10:43:16.606Z,2.90
2018-06-15T10:45:44.386Z,2.57
2018-06-15T10:48:12.751Z,2.63
2018-06-15T10:50:40.599Z,2.47
2018-06-15T10:53:08.308Z,2.70
2018-06-15T10:55:36.076Z,2.80
2018-06-15T10:58:03.706Z,3.17
2018-06-15T11:00:31.677Z,2.43
2018-06-15T11:02:59.374Z,2.93
2018-06-15T11:05:27.018Z,3.03
2018-06-15T11:07:54.926Z,2.10
2018-06-15T11:10:22.816Z,2.33
2018-06-15T11:12:51.045Z,3.10
2018-06-15T11:15:18.944Z,2.10
2018-06-15T11:17:46.640Z,2.27
2018-06-15T11:20:14.334Z,2.17
2018-06-15T11:22:41.987Z,2.20
2018-06-15T11:25:09.885Z,1.93
2018-06-15T11:27:38.209Z,2.57
2018-06-15T11:30:05.990Z,2.70
2018-06-15T11:32:34.030Z,2.90
2018-06-15T11:35:02.077Z,2.80
2018-06-15T11:37:30.046Z,2.60
2018-06-15T11:39:57.715Z,2.33
2018-06-15T11:42:25.402Z,2.90
2018-06-15T11:44:53.739Z,1.87
2018-06-15T11:47:21.401Z,2.83
2018-06-15T11:49:49.364Z,3.30
2018-06-15T11:52:17.278Z,3.07
2018-06-15T11:54:44.929Z,2.77
2018-06-15T11:57:12.840Z,2.63
2018-06-15T11:59:40.625Z,2.63
2018-06-15T12:02:08.320Z,2.27
2018-06-15T12:04:36.015Z,2.73
2018-06-15T12:07:03.761Z,3.10
2018-06-15T12:09:31.801Z,3.50
2018-06-15T12:11:59.526Z,3.00
2018-06-15T12:14:27.945Z,3.00
2018-06-15T12:16:55.697Z,2.07
2018-06-15T12:19:23.638Z,3.10
2018-06-15T12:21:51.683Z,3.13
2018-06-15T12:24:19.664Z,4.10
2018-06-15T12:26:47.278Z,4.70
2018-06-15T12:29:15.273Z,4.23
2018-06-15T12:31:43.154Z,4.27
2018-06-15T12:34:10.934Z,3.60
2018-06-15T12:36:38.527Z,4.20
2018-06-15T12:39:07.669Z,5.87
2018-06-15T12:41:36.003Z,4.63
2018-06-15T12:44:03.703Z,4.30
2018-06-15T12:46:31.347Z,3.50
2018-06-15T12:48:59.358Z,4.47
2018-06-15T12:51:27.437Z,3.60
2018-06-15T12:53:55.287Z,4.47
2018-06-15T12:56:23.421Z,4.90
2018-06-15T12:58:51.394Z,3.90
2018-06-15T13:01:19.287Z,3.57
2018-06-15T13:03:47.172Z,4.30
2018-06-15T13:06:15.005Z,3.50
2018-06-15T13:08:42.808Z,4.27
2018-06-15T13:11:10.443Z,4.00
2018-06-15T13:13:38.066Z,3.70
2018-06-15T13:16:05.995Z,3.67
2018-06-15T13:18:33.617Z,3.93
2018-06-15T13:21:01.311Z,3.20
2018-06-15T13:23:29.177Z,4.60
2018-06-15T13:25:57.116Z,4.03
2018-06-15T13:28:24.757Z,3.07
2018-06-15T13:30:52.800Z,4.30
2018-06-15T13:33:20.655Z,3.20
2018-06-15T13:35:48.504Z,3.70
2018-06-15T13:38:16.496Z,3.70
2018-06-15T13:40:44.110Z,3.30
2018-06-15T13:43:11.985Z,3.23
2018-06-15T13:45:39.622Z,3.87
2018-06-15T13:48:07.813Z,3.17
2018-06-15T13:50:36.158Z,3.30
2018-06-15T13:53:03.765Z,3.10
2018-06-15T13:55:31.704Z,2.90
2018-06-15T13:57:59.347Z,3.40
2018-06-15T14:00:27.032Z,3.20
2018-06-15T14:02:54.613Z,2.93
2018-06-15T14:05:22.251Z,3.80
2018-06-15T14:07:50.600Z,3.33
2018-06-15T14:10:18.474Z,3.13
2018-06-15T14:12:46.148Z,3.30
2018-06-15T14:15:14.335Z,2.90
2018-06-15T14:17:42.298Z,2.77
2018-06-15T14:20:10.489Z,2.80
2018-06-15T14:22:38.455Z,3.00
2018-06-15T14:25:06.416Z,3.00
2018-06-15T14:27:34.119Z,2.20
2018-06-15T14:30:01.873Z,2.80
2018-06-15T14:32:30.221Z,3.00
2018-06-15T14:34:58.150Z,2.97
2018-06-15T14:37:25.787Z,3.20
2018-06-15T14:39:53.537Z,2.83
2018-06-15T14:42:21.629Z,2.90
2018-06-15T14:44:49.257Z,3.03
2018-06-15T14:47:17.569Z,2.87
2018-06-15T14:49:45.711Z,2.30
2018-06-15T14:52:13.629Z,2.70
2018-06-15T14:54:41.944Z,3.07
2018-06-15T14:57:09.552Z,2.60
2018-06-15T14:59:37.186Z,2.20
2018-06-15T15:02:04.865Z,2.63
2018-06-15T15:04:32.506Z,2.40
2018-06-15T15:07:00.386Z,2.37
2018-06-15T15:09:28.062Z,2.87
2018-06-15T15:11:55.692Z,2.70
2018-06-15T15:14:23.300Z,2.60
2018-06-15T15:16:51.038Z,2.73
2018-06-15T15:19:19.207Z,2.60
2018-06-15T15:21:47.443Z,2.40
2018-06-15T15:24:15.333Z,2.13
2018-06-15T15:26:43.237Z,3.10
2018-06-15T15:29:10.889Z,2.33
2018-06-15T15:31:39.143Z,2.50
2018-06-15T15:34:07.176Z,2.47
2018-06-15T15:36:34.784Z,2.57
2018-06-15T15:39:02.495Z,2.50
2018-06-15T15:41:30.489Z,2.60
2018-06-15T15:43:58.681Z,2.70
2018-06-15T15:46:26.668Z,2.70
2018-06-15T15:48:54.614Z,2.00
2018-06-15T15:51:22.302Z,2.20
2018-06-15T15:53:49.992Z,2.70
2018-06-15T15:56:17.601Z,2.47
2018-06-15T15:58:46.107Z,2.57
2018-06-15T16:01:13.840Z,2.20
2018-06-15T16:03:41.570Z,2.07
2018-06-15T16:06:09.300Z,2.10
2018-06-15T16:08:37.263Z,2.33
2018-06-15T16:11:04.873Z,2.50
2018-06-15T16:13:32.462Z,2.50
2018-06-15T16:16:00.160Z,2.60
2018-06-15T16:18:27.766Z,2.33
2018-06-15T16:20:55.518Z,2.20
2018-06-15T16:23:23.415Z,2.20
2018-06-15T16:25:51.282Z,1.83
2018-06-15T16:28:19.490Z,2.20
2018-06-15T16:30:48.139Z,2.37
2018-06-15T16:33:15.908Z,1.87
2018-06-15T16:35:43.535Z,2.40
2018-06-15T16:38:11.434Z,2.00
2018-06-15T16:40:39.081Z,2.27
2018-06-15T16:43:07.066Z,2.13
2018-06-15T16:45:35.275Z,2.17
2018-06-15T16:48:02.975Z,1.90
2018-06-15T16:50:30.838Z,2.17
2018-06-15T16:52:58.805Z,2.17
2018-06-15T16:55:26.425Z,2.37
2018-06-15T16:57:54.064Z,2.23
2018-06-15T17:00:21.849Z,1.90
2018-06-15T17:02:49.472Z,2.03
2018-06-15T17:05:17.109Z,2.10
2018-06-15T17:07:45.124Z,2.03
2018-06-15T17:10:12.768Z,2.07
2018-06-15T17:12:40.582Z,2.20
2018-06-15T17:15:08.493Z,2.00
2018-06-15T17:17:36.876Z,1.63
2018-06-15T17:20:04.746Z,2.17
2018-06-15T17:22:32.614Z,2.20
2018-06-15T17:25:00.613Z,1.93
2018-06-15T17:27:28.288Z,2.10
2018-06-15T17:29:55.922Z,2.97
2018-06-15T17:32:23.585Z,1.93
2018-06-15T17:34:51.241Z,1.77
2018-06-15T17:37:19.023Z,2.10
2018-06-15T17:39:46.956Z,1.97
2018-06-15T17:42:14.594Z,1.50
2018-06-15T17:44:42.299Z,1.70
2018-06-15T17:47:10.286Z,1.73
2018-06-15T17:49:38.051Z,1.70
2018-06-15T17:52:06.289Z,1.67
2018-06-15T17:54:33.923Z,1.83
2018-06-15T17:57:01.598Z,2.00
2018-06-15T17:59:29.615Z,1.60
2018-06-15T18:01:57.246Z,1.93
2018-06-15T18:04:25.578Z,2.63
2018-06-15T18:06:53.514Z,1.70
2018-06-15T18:09:21.469Z,1.50
2018-06-15T18:11:49.421Z,1.70
2018-06-15T18:14:17.067Z,1.60
2018-06-15T18:16:45.037Z,1.73
2018-06-15T18:19:12.687Z,1.67
2018-06-15T18:21:40.699Z,1.70
2018-06-15T18:24:08.373Z,1.60
2018-06-15T18:26:36.300Z,1.73
2018-06-15T18:29:03.900Z,1.90
2018-06-15T18:31:31.999Z,1.53
2018-06-15T18:33:59.633Z,1.50
2018-06-15T18:36:27.239Z,1.53
2018-06-15T18:38:55.112Z,1.90
2018-06-15T18:41:22.831Z,1.67
2018-06-15T18:43:50.863Z,1.40
2018-06-15T18:46:18.814Z,1.20
2018-06-15T18:48:46.504Z,1.77
2018-06-15T18:51:14.223Z,1.90
2018-06-15T18:53:41.846Z,1.50
2018-06-15T18:56:09.789Z,1.87
2018-06-15T18:58:37.800Z,1.67
2018-06-15T19:01:05.434Z,1.30
2018-06-15T19:03:34.479Z,1.83
2018-06-15T19:06:02.264Z,1.60
2018-06-15T19:08:30.474Z,1.90
2018-06-15T19:10:58.354Z,1.60
2018-06-15T19:13:26.346Z,1.27
2018-06-15T19:15:53.993Z,1.20
2018-06-15T19:18:21.840Z,1.50
2018-06-15T19:20:49.745Z,1.70
2018-06-15T19:23:17.644Z,1.70
2018-06-15T19:25:45.414Z,1.20
2018-06-15T19:28:13.064Z,1.70
2018-06-15T19:30:40.731Z,1.60
2018-06-15T19:33:08.413Z,1.70
2018-06-15T19:35:36.022Z,1.23
2018-06-15T19:38:04.287Z,1.83
2018-06-15T19:40:32.044Z,1.70
2018-06-15T19:42:59.702Z,1.77
2018-06-15T19:45:27.773Z,1.43
2018-06-15T19:47:55.905Z,1.60
2018-06-15T19:50:23.837Z,1.50
2018-06-15T19:52:51.710Z,1.50
2018-06-15T19:55:19.395Z,2.00
2018-06-15T19:57:47.045Z,1.47
2018-06-15T20:00:14.673Z,1.77
2018-06-15T20:02:42.989Z,1.43
2018-06-15T20:05:10.666Z,1.60
2018-06-15T20:07:38.801Z,1.80
2018-06-15T20:10:06.528Z,1.60
2018-06-15T20:12:34.176Z,1.50
2018-06-15T20:15:01.965Z,1.70
2018-06-15T20:17:29.600Z,1.30
2018-06-15T20:19:57.453Z,1.60
2018-06-15T20:22:25.712Z,1.80
2018-06-15T20:24:53.601Z,1.50
2018-06-15T20:27:21.259Z,1.63
2018-06-15T20:29:49.200Z,1.43
2018-06-15T20:32:16.829Z,1.80
2018-06-15T20:34:44.501Z,1.53
2018-06-15T20:37:12.234Z,1.30
2018-06-15T20:39:39.930Z,1.33
2018-06-15T20:42:07.559Z,1.53
2018-06-15T20:44:35.220Z,1.33
2018-06-15T20:47:02.857Z,1.50
2018-06-15T20:49:30.525Z,1.30
2018-06-15T20:51:58.327Z,1.23
2018-06-15T20:54:26.034Z,1.27
2018-06-15T20:56:53.672Z,1.60
2018-06-15T20:59:21.364Z,1.70
2018-06-15T21:01:49.333Z,1.33
2018-06-15T21:04:17.354Z,1.50
2018-06-15T21:06:45.074Z,1.63
2018-06-15T21:09:12.996Z,1.43
2018-06-15T21:11:40.954Z,1.63
2018-06-15T21:14:08.600Z,1.30
2018-06-15T21:16:36.568Z,1.60
2018-06-15T21:19:04.203Z,1.80
2018-06-15T21:21:32.433Z,1.40
2018-06-15T21:24:00.186Z,1.20
2018-06-15T21:26:27.886Z,1.60
2018-06-15T21:28:56.406Z,1.20
2018-06-15T21:31:24.075Z,1.30
2018-06-15T21:33:51.709Z,1.40
2018-06-15T21:36:19.741Z,1.43
2018-06-15T21:38:47.380Z,1.60
2018-06-15T21:41:15.021Z,1.30
2018-06-15T21:43:42.940Z,1.60
2018-06-15T21:46:10.620Z,1.50
2018-06-15T21:48:38.337Z,1.30
2018-06-15T21:51:06.151Z,1.57
2018-06-15T21:53:34.070Z,1.40
2018-06-15T21:56:01.689Z,1.33
2018-06-15T21:58:29.353Z,1.40
2018-06-15T22:00:57.850Z,1.40
2018-06-15T22:03:25.987Z,1.50
2018-06-15T22:05:53.675Z,1.30
2018-06-15T22:08:21.388Z,1.37
2018-06-15T22:10:49.119Z,1.10
2018-06-15T22:13:16.797Z,1.30
2018-06-15T22:15:44.813Z,1.30
2018-06-15T22:18:12.735Z,1.33
2018-06-15T22:20:40.365Z,1.20
2018-06-15T22:23:07.993Z,1.40
2018-06-15T22:25:35.634Z,1.20
2018-06-15T22:28:03.565Z,1.40
2018-06-15T22:30:31.843Z,1.13
2018-06-15T22:32:59.489Z,1.63
2018-06-15T22:35:27.137Z,1.10
2018-06-15T22:37:54.789Z,1.43
2018-06-15T22:40:22.450Z,1.50
2018-06-15T22:42:50.399Z,1.50
2018-06-15T22:45:18.212Z,1.40
2018-06-15T22:47:47.309Z,1.40
2018-06-15T22:50:15.325Z,1.67
2018-06-15T22:52:43.134Z,1.50
2018-06-15T22:55:11.058Z,1.23
2018-06-15T22:57:39.004Z,1.30
2018-06-15T23:00:06.861Z,1.50
2018-06-15T23:02:34.821Z,1.60
2018-06-15T23:05:02.722Z,1.33
2018-06-15T23:07:30.666Z,1.40
2018-06-15T23:09:58.802Z,1.40
2018-06-15T23:12:26.718Z,1.27
2018-06-15T23:14:54.566Z,1.60
2018-06-15T23:17:22.540Z,1.43
2018-06-15T23:19:50.401Z,1.47
2018-06-15T23:22:18.255Z,1.37
2018-06-15T23:24:46.932Z,1.30
2018-06-15T23:27:14.863Z,1.33
2018-06-15T23:29:42.653Z,1.40
2018-06-15T23:32:10.625Z,1.30
2018-06-15T23:34:38.472Z,1.10
2018-06-15T23:37:06.361Z,1.33
2018-06-15T23:39:34.222Z,1.23
2018-06-15T23:42:02.871Z,1.50
2018-06-15T23:44:30.920Z,1.20
2018-06-15T23:46:59.746Z,1.20
2018-06-15T23:49:27.609Z,1.57
2018-06-15T23:51:55.655Z,1.53
2018-06-15T23:54:23.579Z,1.37
2018-06-15T23:56:52.629Z,1.50
2018-06-15T23:59:20.550Z,1.40
